createdAt,value
2022-08-22T00:00:22.000Z,14.90
2022-08-22T00:01:22.000Z,14.90
2022-08-22T00:02:22.000Z,14.87
2022-08-22T00:03:22.000Z,14.87
2022-08-22T00:04:22.000Z,14.86
2022-08-22T00:05:22.000Z,14.85
2022-08-22T00:06:22.000Z,14.83
2022-08-22T00:07:22.000Z,14.82
2022-08-22T00:08:22.000Z,14.82
2022-08-22T00:09:22.000Z,14.82
2022-08-22T00:10:22.000Z,14.80
2022-08-22T00:11:22.000Z,14.80
2022-08-22T00:12:22.000Z,14.78
2022-08-22T00:13:22.000Z,14.79
2022-08-22T00:14:22.000Z,14.72
2022-08-22T00:15:22.000Z,14.74
2022-08-22T00:16:22.000Z,14.71
2022-08-22T00:17:22.000Z,14.67
2022-08-22T00:18:22.000Z,14.67
2022-08-22T00:19:22.000Z,14.63
2022-08-22T00:20:22.000Z,14.63
2022-08-22T00:21:22.000Z,14.60
2022-08-22T00:22:22.000Z,14.60
2022-08-22T00:23:22.000Z,14.60
2022-08-22T00:24:22.000Z,14.53
2022-08-22T00:25:22.000Z,14.54
2022-08-22T00:26:22.000Z,14.59
2022-08-22T00:27:22.000Z,14.52
2022-08-22T00:28:22.000Z,14.54
2022-08-22T00:29:22.000Z,14.48
2022-08-22T00:30:22.000Z,14.48
2022-08-22T00:31:22.000Z,14.48
2022-08-22T00:32:21.000Z,14.52
2022-08-22T00:33:21.000Z,14.49
2022-08-22T00:34:21.000Z,14.48
2022-08-22T00:35:21.000Z,14.46
2022-08-22T00:36:21.000Z,14.46
2022-08-22T00:37:21.000Z,14.46
2022-08-22T00:38:21.000Z,14.45
2022-08-22T00:39:21.000Z,14.45
2022-08-22T00:40:21.000Z,14.44
2022-08-22T00:41:21.000Z,14.45
2022-08-22T00:42:21.000Z,14.44
2022-08-22T00:43:21.000Z,14.41
2022-08-22T00:44:21.000Z,14.42
2022-08-22T00:45:21.000Z,14.41
2022-08-22T00:46:21.000Z,14.46
2022-08-22T00:47:21.000Z,14.48
2022-08-22T00:48:21.000Z,14.48
2022-08-22T00:49:21.000Z,14.48
2022-08-22T00:50:21.000Z,14.48
2022-08-22T00:51:21.000Z,14.46
2022-08-22T00:52:21.000Z,14.46
2022-08-22T00:53:21.000Z,14.45
2022-08-22T00:54:21.000Z,14.45
2022-08-22T00:55:21.000Z,14.41
2022-08-22T00:56:21.000Z,14.41
2022-08-22T00:57:21.000Z,14.39
2022-08-22T00:58:21.000Z,14.39
2022-08-22T00:59:21.000Z,14.38
2022-08-22T01:00:21.000Z,14.39
2022-08-22T01:01:21.000Z,14.39
2022-08-22T01:02:21.000Z,14.36
2022-08-22T01:03:21.000Z,14.34
2022-08-22T01:04:21.000Z,14.34
2022-08-22T01:05:21.000Z,14.30
2022-08-22T01:06:21.000Z,14.31
2022-08-22T01:07:21.000Z,14.30
2022-08-22T01:08:21.000Z,14.29
2022-08-22T01:09:21.000Z,14.26
2022-08-22T01:10:21.000Z,14.29
2022-08-22T01:11:21.000Z,14.24
2022-08-22T01:12:21.000Z,14.23
2022-08-22T01:13:21.000Z,14.21
2022-08-22T01:14:21.000Z,14.23
2022-08-22T01:15:21.000Z,14.21
2022-08-22T01:16:21.000Z,14.21
2022-08-22T01:17:21.000Z,14.17
2022-08-22T01:18:21.000Z,14.19
2022-08-22T01:19:21.000Z,14.17
2022-08-22T01:20:21.000Z,14.16
2022-08-22T01:21:21.000Z,14.16
2022-08-22T01:22:21.000Z,14.17
2022-08-22T01:23:21.000Z,14.13
2022-08-22T01:24:21.000Z,14.13
2022-08-22T01:25:21.000Z,14.13
2022-08-22T01:26:21.000Z,14.16
2022-08-22T01:27:21.000Z,14.12
2022-08-22T01:28:21.000Z,14.12
2022-08-22T01:29:21.000Z,14.12
2022-08-22T01:30:21.000Z,14.13
2022-08-22T01:31:21.000Z,14.11
2022-08-22T01:32:21.000Z,14.11
2022-08-22T01:33:21.000Z,14.13
2022-08-22T01:34:21.000Z,14.11
2022-08-22T01:35:21.000Z,14.09
2022-08-22T01:36:21.000Z,14.11
2022-08-22T01:37:21.000Z,14.08
2022-08-22T01:38:21.000Z,14.08
2022-08-22T01:38:21.000Z,14.08
2022-08-22T01:39:21.000Z,14.05
2022-08-22T01:39:21.000Z,14.05
2022-08-22T01:40:21.000Z,14.06
2022-08-22T01:40:21.000Z,14.06
2022-08-22T01:41:21.000Z,14.05
2022-08-22T01:41:21.000Z,14.05
2022-08-22T01:42:21.000Z,14.05
2022-08-22T01:42:21.000Z,14.05
2022-08-22T01:43:21.000Z,14.06
2022-08-22T01:44:21.000Z,14.04
2022-08-22T01:45:20.000Z,14.04
2022-08-22T01:46:20.000Z,14.06
2022-08-22T01:47:20.000Z,14.04
2022-08-22T01:48:20.000Z,14.04
2022-08-22T01:49:20.000Z,14.02
2022-08-22T01:50:20.000Z,14.04
2022-08-22T01:51:20.000Z,14.04
2022-08-22T01:52:20.000Z,14.02
2022-08-22T01:53:20.000Z,14.04
2022-08-22T01:54:20.000Z,14.05
2022-08-22T01:55:20.000Z,14.04
2022-08-22T01:56:20.000Z,14.02
2022-08-22T01:57:20.000Z,13.98
2022-08-22T01:58:20.000Z,13.99
2022-08-22T01:59:20.000Z,13.98
2022-08-22T02:00:20.000Z,13.96
2022-08-22T02:01:20.000Z,13.93
2022-08-22T02:02:20.000Z,13.98
2022-08-22T02:03:20.000Z,13.88
2022-08-22T02:04:20.000Z,13.90
2022-08-22T02:05:20.000Z,13.90
2022-08-22T02:06:20.000Z,13.87
2022-08-22T02:07:20.000Z,13.87
2022-08-22T02:08:20.000Z,13.86
2022-08-22T02:09:20.000Z,13.83
2022-08-22T02:10:20.000Z,13.81
2022-08-22T02:11:20.000Z,13.84
2022-08-22T02:12:20.000Z,13.83
2022-08-22T02:13:20.000Z,13.80
2022-08-22T02:14:20.000Z,13.80
2022-08-22T02:15:20.000Z,13.76
2022-08-22T02:16:20.000Z,13.75
2022-08-22T02:17:20.000Z,13.79
2022-08-22T02:18:20.000Z,13.73
2022-08-22T02:19:20.000Z,13.73
2022-08-22T02:20:20.000Z,13.75
2022-08-22T02:21:20.000Z,13.79
2022-08-22T02:22:20.000Z,13.73
2022-08-22T02:23:20.000Z,13.75
2022-08-22T02:24:20.000Z,13.73
2022-08-22T02:25:20.000Z,13.80
2022-08-22T02:26:20.000Z,13.90
2022-08-22T02:27:20.000Z,13.90
2022-08-22T02:28:20.000Z,13.94
2022-08-22T02:29:20.000Z,14.04
2022-08-22T02:30:20.000Z,14.05
2022-08-22T02:31:20.000Z,14.08
2022-08-22T02:32:20.000Z,14.09
2022-08-22T02:33:20.000Z,14.08
2022-08-22T02:34:20.000Z,14.13
2022-08-22T02:35:20.000Z,14.13
2022-08-22T02:36:20.000Z,14.12
2022-08-22T02:37:20.000Z,14.12
2022-08-22T02:38:20.000Z,14.16
2022-08-22T02:39:20.000Z,14.12
2022-08-22T02:40:20.000Z,14.11
2022-08-22T02:41:20.000Z,14.11
2022-08-22T02:42:20.000Z,14.09
2022-08-22T02:43:20.000Z,14.09
2022-08-22T02:44:20.000Z,14.08
2022-08-22T02:45:20.000Z,14.02
2022-08-22T02:46:20.000Z,14.05
2022-08-22T02:47:20.000Z,14.02
2022-08-22T02:48:20.000Z,14.02
2022-08-22T02:49:20.000Z,14.04
2022-08-22T02:50:20.000Z,14.01
2022-08-22T02:51:20.000Z,14.02
2022-08-22T02:52:20.000Z,13.99
2022-08-22T02:53:20.000Z,14.01
2022-08-22T02:54:20.000Z,14.01
2022-08-22T02:55:20.000Z,14.01
2022-08-22T02:56:20.000Z,13.96
2022-08-22T02:57:20.000Z,13.93
2022-08-22T02:58:19.000Z,13.91
2022-08-22T02:59:19.000Z,13.88
2022-08-22T03:00:19.000Z,13.84
2022-08-22T03:01:19.000Z,13.80
2022-08-22T03:02:19.000Z,13.79
2022-08-22T03:03:19.000Z,13.79
2022-08-22T03:04:19.000Z,13.76
2022-08-22T03:05:19.000Z,13.71
2022-08-22T03:06:19.000Z,13.69
2022-08-22T03:07:19.000Z,13.68
2022-08-22T03:08:19.000Z,13.65
2022-08-22T03:09:19.000Z,13.62
2022-08-22T03:10:19.000Z,13.59
2022-08-22T03:11:19.000Z,13.59
2022-08-22T03:12:19.000Z,13.61
2022-08-22T03:13:19.000Z,13.59
2022-08-22T03:14:19.000Z,13.57
2022-08-22T03:15:19.000Z,13.59
2022-08-22T03:16:19.000Z,13.63
2022-08-22T03:17:19.000Z,13.59
2022-08-22T03:18:19.000Z,13.59
2022-08-22T03:19:19.000Z,13.61
2022-08-22T03:20:19.000Z,13.57
2022-08-22T03:21:19.000Z,13.55
2022-08-22T03:22:19.000Z,13.57
2022-08-22T03:23:19.000Z,13.53
2022-08-22T03:24:19.000Z,13.53
2022-08-22T03:25:19.000Z,13.54
2022-08-22T03:26:19.000Z,13.51
2022-08-22T03:27:19.000Z,13.51
2022-08-22T03:28:19.000Z,13.50
2022-08-22T03:29:19.000Z,13.48
2022-08-22T03:30:19.000Z,13.43
2022-08-22T03:31:19.000Z,13.44
2022-08-22T03:32:19.000Z,13.46
2022-08-22T03:33:19.000Z,13.41
2022-08-22T03:34:19.000Z,13.44
2022-08-22T03:35:19.000Z,13.41
2022-08-22T03:36:19.000Z,13.39
2022-08-22T03:37:19.000Z,13.36
2022-08-22T03:38:19.000Z,13.32
2022-08-22T03:39:19.000Z,13.31
2022-08-22T03:40:19.000Z,13.28
2022-08-22T03:41:19.000Z,13.28
2022-08-22T03:42:19.000Z,13.28
2022-08-22T03:43:19.000Z,13.29
2022-08-22T03:44:19.000Z,13.29
2022-08-22T03:45:19.000Z,13.31
2022-08-22T03:46:19.000Z,13.31
2022-08-22T03:47:19.000Z,13.31
2022-08-22T03:48:19.000Z,13.27
2022-08-22T03:49:19.000Z,13.29
2022-08-22T03:50:19.000Z,13.29
2022-08-22T03:51:19.000Z,13.24
2022-08-22T03:52:19.000Z,13.27
2022-08-22T03:53:19.000Z,13.21
2022-08-22T03:54:19.000Z,13.22
2022-08-22T03:55:19.000Z,13.17
2022-08-22T03:56:19.000Z,13.16
2022-08-22T03:57:19.000Z,13.13
2022-08-22T03:58:19.000Z,13.14
2022-08-22T03:59:19.000Z,13.13
2022-08-22T04:00:19.000Z,13.14
2022-08-22T04:01:19.000Z,13.10
2022-08-22T04:02:19.000Z,13.16
2022-08-22T04:03:19.000Z,13.14
2022-08-22T04:04:19.000Z,13.13
2022-08-22T04:05:19.000Z,13.14
2022-08-22T04:06:19.000Z,13.14
2022-08-22T04:07:19.000Z,13.16
2022-08-22T04:08:19.000Z,13.17
2022-08-22T04:09:19.000Z,13.21
2022-08-22T04:10:19.000Z,13.24
2022-08-22T04:11:18.000Z,13.21
2022-08-22T04:12:18.000Z,13.24
2022-08-22T04:13:18.000Z,13.22
2022-08-22T04:14:18.000Z,13.25
2022-08-22T04:15:18.000Z,13.25
2022-08-22T04:16:18.000Z,13.28
2022-08-22T04:17:18.000Z,13.31
2022-08-22T04:18:18.000Z,13.31
2022-08-22T04:19:18.000Z,13.31
2022-08-22T04:20:18.000Z,13.29
2022-08-22T04:21:18.000Z,13.36
2022-08-22T04:22:18.000Z,13.31
2022-08-22T04:23:18.000Z,13.32
2022-08-22T04:24:18.000Z,13.28
2022-08-22T04:25:18.000Z,13.36
2022-08-22T04:26:18.000Z,13.36
2022-08-22T04:27:18.000Z,13.38
2022-08-22T04:28:18.000Z,13.38
2022-08-22T04:29:18.000Z,13.41
2022-08-22T04:30:18.000Z,13.39
2022-08-22T04:31:18.000Z,13.43
2022-08-22T04:32:18.000Z,13.47
2022-08-22T04:33:18.000Z,13.47
2022-08-22T04:34:18.000Z,13.48
2022-08-22T04:35:18.000Z,13.50
2022-08-22T04:36:18.000Z,13.54
2022-08-22T04:37:18.000Z,13.55
2022-08-22T04:38:18.000Z,13.59
2022-08-22T04:39:18.000Z,13.59
2022-08-22T04:40:18.000Z,13.59
2022-08-22T04:41:18.000Z,13.62
2022-08-22T04:42:18.000Z,13.63
2022-08-22T04:43:18.000Z,13.61
2022-08-22T04:44:18.000Z,13.61
2022-08-22T04:45:18.000Z,13.65
2022-08-22T04:46:18.000Z,13.61
2022-08-22T04:47:18.000Z,13.61
2022-08-22T04:48:18.000Z,13.61
2022-08-22T04:49:18.000Z,13.61
2022-08-22T04:50:18.000Z,13.61
2022-08-22T04:51:18.000Z,13.57
2022-08-22T04:52:18.000Z,13.62
2022-08-22T04:53:18.000Z,13.63
2022-08-22T04:54:18.000Z,13.61
2022-08-22T04:55:18.000Z,13.62
2022-08-22T04:56:18.000Z,13.62
2022-08-22T04:57:18.000Z,13.62
2022-08-22T04:58:18.000Z,13.61
2022-08-22T04:59:18.000Z,13.63
2022-08-22T05:00:18.000Z,13.63
2022-08-22T05:01:18.000Z,13.61
2022-08-22T05:02:18.000Z,13.63
2022-08-22T05:03:18.000Z,13.62
2022-08-22T05:04:18.000Z,13.62
2022-08-22T05:05:18.000Z,13.62
2022-08-22T05:06:18.000Z,13.66
2022-08-22T05:07:18.000Z,13.65
2022-08-22T05:08:18.000Z,13.66
2022-08-22T05:09:18.000Z,13.69
2022-08-22T05:10:18.000Z,13.66
2022-08-22T05:11:18.000Z,13.69
2022-08-22T05:12:18.000Z,13.68
2022-08-22T05:13:18.000Z,13.71
2022-08-22T05:14:18.000Z,13.69
2022-08-22T05:15:18.000Z,13.71
2022-08-22T05:16:18.000Z,13.72
2022-08-22T05:17:18.000Z,13.71
2022-08-22T05:18:18.000Z,13.72
2022-08-22T05:19:18.000Z,13.73
2022-08-22T05:20:18.000Z,13.76
2022-08-22T05:21:18.000Z,13.76
2022-08-22T05:22:18.000Z,13.76
2022-08-22T05:23:18.000Z,13.81
2022-08-22T05:24:18.000Z,13.81
2022-08-22T05:25:17.000Z,13.83
2022-08-22T05:26:17.000Z,13.88
2022-08-22T05:27:17.000Z,13.90
2022-08-22T05:28:17.000Z,13.91
2022-08-22T05:29:17.000Z,13.99
2022-08-22T05:30:17.000Z,14.01
2022-08-22T05:31:17.000Z,14.04
2022-08-22T05:32:17.000Z,14.08
2022-08-22T05:33:17.000Z,14.12
2022-08-22T05:34:17.000Z,14.19
2022-08-22T05:35:17.000Z,14.23
2022-08-22T05:36:17.000Z,14.26
2022-08-22T05:37:17.000Z,14.31
2022-08-22T05:38:17.000Z,14.35
2022-08-22T05:39:17.000Z,14.35
2022-08-22T05:40:17.000Z,14.39
2022-08-22T05:41:17.000Z,14.39
2022-08-22T05:42:17.000Z,14.44
2022-08-22T05:43:17.000Z,14.49
2022-08-22T05:44:17.000Z,14.52
2022-08-22T05:45:17.000Z,14.54
2022-08-22T05:46:17.000Z,14.59
2022-08-22T05:47:17.000Z,14.57
2022-08-22T05:48:17.000Z,14.60
2022-08-22T05:49:17.000Z,14.66
2022-08-22T05:50:17.000Z,14.69
2022-08-22T05:51:17.000Z,14.74
2022-08-22T05:52:17.000Z,14.78
2022-08-22T05:53:17.000Z,14.80
2022-08-22T05:54:17.000Z,14.85
2022-08-22T05:55:17.000Z,14.90
2022-08-22T05:56:17.000Z,14.95
2022-08-22T05:57:17.000Z,15.01
2022-08-22T05:58:17.000Z,15.01
2022-08-22T05:59:17.000Z,15.12
2022-08-22T06:00:17.000Z,15.15
2022-08-22T06:01:17.000Z,15.20
2022-08-22T06:02:17.000Z,15.25
2022-08-22T06:03:17.000Z,15.31
2022-08-22T06:04:17.000Z,15.37
2022-08-22T06:05:17.000Z,15.44
2022-08-22T06:06:17.000Z,15.51
2022-08-22T06:07:17.000Z,15.53
2022-08-22T06:08:17.000Z,15.60
2022-08-22T06:09:17.000Z,15.66
2022-08-22T06:10:17.000Z,15.71
2022-08-22T06:11:17.000Z,15.77
2022-08-22T06:12:17.000Z,15.85
2022-08-22T06:13:17.000Z,15.91
2022-08-22T06:14:17.000Z,15.93
2022-08-22T06:15:17.000Z,15.99
2022-08-22T06:16:17.000Z,16.06
2022-08-22T06:17:17.000Z,16.11
2022-08-22T06:18:17.000Z,16.13
2022-08-22T06:19:17.000Z,16.23
2022-08-22T06:20:17.000Z,16.26
2022-08-22T06:21:17.000Z,16.33
2022-08-22T06:22:17.000Z,16.36
2022-08-22T06:23:17.000Z,16.40
2022-08-22T06:24:17.000Z,16.47
2022-08-22T06:25:17.000Z,16.52
2022-08-22T06:26:17.000Z,16.55
2022-08-22T06:27:17.000Z,16.63
2022-08-22T06:28:17.000Z,16.63
2022-08-22T06:29:17.000Z,16.70
2022-08-22T06:30:17.000Z,16.75
2022-08-22T06:31:17.000Z,16.80
2022-08-22T06:32:17.000Z,16.84
2022-08-22T06:33:17.000Z,16.87
2022-08-22T06:34:17.000Z,16.90
2022-08-22T06:35:17.000Z,16.96
2022-08-22T06:36:17.000Z,16.99
2022-08-22T06:37:17.000Z,17.02
2022-08-22T06:38:16.000Z,17.05
2022-08-22T06:39:16.000Z,17.07
2022-08-22T06:40:16.000Z,17.12
2022-08-22T06:41:16.000Z,17.15
2022-08-22T06:42:16.000Z,17.18
2022-08-22T06:43:16.000Z,17.22
2022-08-22T06:44:16.000Z,17.25
2022-08-22T06:45:16.000Z,17.30
2022-08-22T06:46:16.000Z,17.33
2022-08-22T06:47:16.000Z,17.32
2022-08-22T06:48:16.000Z,17.38
2022-08-22T06:49:16.000Z,17.42
2022-08-22T06:50:16.000Z,17.45
2022-08-22T06:51:16.000Z,17.45
2022-08-22T06:52:16.000Z,17.49
2022-08-22T06:53:16.000Z,17.55
2022-08-22T06:54:16.000Z,17.58
2022-08-22T06:55:16.000Z,17.62
2022-08-22T06:56:16.000Z,17.65
2022-08-22T06:57:16.000Z,17.68
2022-08-22T06:58:16.000Z,17.73
2022-08-22T06:59:16.000Z,17.76
2022-08-22T07:00:16.000Z,17.81
2022-08-22T07:01:16.000Z,17.81
2022-08-22T07:02:16.000Z,17.86
2022-08-22T07:03:16.000Z,17.91
2022-08-22T07:04:16.000Z,17.98
2022-08-22T07:05:16.000Z,18.04
2022-08-22T07:06:16.000Z,18.10
2022-08-22T07:07:16.000Z,18.16
2022-08-22T07:08:16.000Z,18.21
2022-08-22T07:09:16.000Z,18.25
2022-08-22T07:10:16.000Z,18.34
2022-08-22T07:11:16.000Z,18.41
2022-08-22T07:12:16.000Z,18.51
2022-08-22T07:13:16.000Z,18.57
2022-08-22T07:14:16.000Z,18.64
2022-08-22T07:15:16.000Z,18.72
2022-08-22T07:16:16.000Z,18.79
2022-08-22T07:17:16.000Z,18.87
2022-08-22T07:18:16.000Z,18.99
2022-08-22T07:19:16.000Z,19.06
2022-08-22T07:20:16.000Z,19.15
2022-08-22T07:21:16.000Z,19.20
2022-08-22T07:22:16.000Z,19.34
2022-08-22T07:23:16.000Z,19.38
2022-08-22T07:23:16.000Z,19.38
2022-08-22T07:24:16.000Z,19.42
2022-08-22T07:24:16.000Z,19.42
2022-08-22T07:25:16.000Z,19.49
2022-08-22T07:25:16.000Z,19.49
2022-08-22T07:26:16.000Z,19.58
2022-08-22T07:26:16.000Z,19.58
2022-08-22T07:27:16.000Z,19.61
2022-08-22T07:27:16.000Z,19.61
2022-08-22T07:28:16.000Z,19.67
2022-08-22T07:29:16.000Z,19.78
2022-08-22T07:30:16.000Z,19.79
2022-08-22T07:31:16.000Z,19.86
2022-08-22T07:32:16.000Z,19.94
2022-08-22T07:33:16.000Z,19.98
2022-08-22T07:34:16.000Z,20.15
2022-08-22T07:35:16.000Z,20.23
2022-08-22T07:36:16.000Z,20.34
2022-08-22T07:37:16.000Z,20.46
2022-08-22T07:38:16.000Z,20.54
2022-08-22T07:39:16.000Z,20.68
2022-08-22T07:40:16.000Z,20.76
2022-08-22T07:41:16.000Z,20.81
2022-08-22T07:42:16.000Z,20.85
2022-08-22T07:43:16.000Z,20.91
2022-08-22T07:44:16.000Z,20.97
2022-08-22T07:45:16.000Z,21.03
2022-08-22T07:46:16.000Z,21.12
2022-08-22T07:47:16.000Z,21.18
2022-08-22T07:48:16.000Z,21.26
2022-08-22T07:49:16.000Z,21.31
2022-08-22T07:50:16.000Z,21.40
2022-08-22T07:51:15.000Z,21.38
2022-08-22T07:52:15.000Z,21.37
2022-08-22T07:53:15.000Z,21.40
2022-08-22T07:54:15.000Z,21.48
2022-08-22T07:55:15.000Z,21.53
2022-08-22T07:56:15.000Z,21.56
2022-08-22T07:57:15.000Z,21.67
2022-08-22T07:58:15.000Z,21.73
2022-08-22T07:59:15.000Z,21.94
2022-08-22T08:00:15.000Z,22.24
2022-08-22T08:01:15.000Z,22.60
2022-08-22T08:02:15.000Z,22.88
2022-08-22T08:03:15.000Z,23.07
2022-08-22T08:04:15.000Z,23.31
2022-08-22T08:05:15.000Z,23.60
2022-08-22T08:06:15.000Z,23.75
2022-08-22T08:07:15.000Z,23.90
2022-08-22T08:08:15.000Z,24.16
2022-08-22T08:09:15.000Z,24.31
2022-08-22T08:10:15.000Z,24.29
2022-08-22T08:11:15.000Z,24.31
2022-08-22T08:12:15.000Z,24.61
2022-08-22T08:13:15.000Z,24.94
2022-08-22T08:14:15.000Z,25.17
2022-08-22T08:15:15.000Z,25.31
2022-08-22T08:16:15.000Z,25.35
2022-08-22T08:17:15.000Z,25.34
2022-08-22T08:18:15.000Z,25.39
2022-08-22T08:19:15.000Z,25.60
2022-08-22T08:20:15.000Z,25.72
2022-08-22T08:21:15.000Z,25.78
2022-08-22T08:22:15.000Z,25.89
2022-08-22T08:23:15.000Z,26.04
2022-08-22T08:24:15.000Z,26.13
2022-08-22T08:25:15.000Z,26.27
2022-08-22T08:26:15.000Z,26.28
2022-08-22T08:27:15.000Z,26.32
2022-08-22T08:28:15.000Z,26.31
2022-08-22T08:29:15.000Z,26.36
2022-08-22T08:30:15.000Z,26.39
2022-08-22T08:31:15.000Z,26.53
2022-08-22T08:32:15.000Z,26.73
2022-08-22T08:33:15.000Z,26.71
2022-08-22T08:34:15.000Z,26.65
2022-08-22T08:35:15.000Z,26.59
2022-08-22T08:36:15.000Z,26.69
2022-08-22T08:37:15.000Z,26.81
2022-08-22T08:38:15.000Z,26.88
2022-08-22T08:39:15.000Z,27.08
2022-08-22T08:40:15.000Z,27.24
2022-08-22T08:41:15.000Z,27.34
2022-08-22T08:42:15.000Z,27.31
2022-08-22T08:43:15.000Z,27.35
2022-08-22T08:44:15.000Z,27.38
2022-08-22T08:45:15.000Z,27.11
2022-08-22T08:46:15.000Z,26.97
2022-08-22T08:47:15.000Z,26.96
2022-08-22T08:48:15.000Z,27.12
2022-08-22T08:49:15.000Z,27.43
2022-08-22T08:50:15.000Z,27.69
2022-08-22T08:51:15.000Z,27.74
2022-08-22T08:52:15.000Z,27.59
2022-08-22T08:53:15.000Z,27.53
2022-08-22T08:54:15.000Z,27.52
2022-08-22T08:55:15.000Z,27.53
2022-08-22T08:56:15.000Z,27.65
2022-08-22T08:57:15.000Z,27.84
2022-08-22T08:58:15.000Z,27.99
2022-08-22T08:59:15.000Z,27.80
2022-08-22T09:00:15.000Z,27.87
2022-08-22T09:01:15.000Z,28.06
2022-08-22T09:02:15.000Z,28.05
2022-08-22T09:03:15.000Z,27.76
2022-08-22T09:04:15.000Z,27.71
2022-08-22T09:05:14.000Z,27.76
2022-08-22T09:06:14.000Z,27.77
2022-08-22T09:07:14.000Z,27.90
2022-08-22T09:08:14.000Z,27.95
2022-08-22T09:09:14.000Z,27.80
2022-08-22T09:10:14.000Z,27.83
2022-08-22T09:11:14.000Z,27.81
2022-08-22T09:12:14.000Z,27.72
2022-08-22T09:13:14.000Z,27.48
2022-08-22T09:14:14.000Z,27.09
2022-08-22T09:15:14.000Z,26.78
2022-08-22T09:16:14.000Z,26.56
2022-08-22T09:17:14.000Z,26.29
2022-08-22T09:18:14.000Z,26.17
2022-08-22T09:19:14.000Z,26.06
2022-08-22T09:20:14.000Z,25.89
2022-08-22T09:21:14.000Z,25.81
2022-08-22T09:22:14.000Z,25.83
2022-08-22T09:23:14.000Z,25.98
2022-08-22T09:23:14.000Z,25.98
2022-08-22T09:24:14.000Z,25.96
2022-08-22T09:24:14.000Z,25.96
2022-08-22T09:25:14.000Z,25.96
2022-08-22T09:25:14.000Z,25.96
2022-08-22T09:26:14.000Z,26.00
2022-08-22T09:26:14.000Z,26.00
2022-08-22T09:27:14.000Z,26.08
2022-08-22T09:27:14.000Z,26.08
2022-08-22T09:28:14.000Z,26.09
2022-08-22T09:29:14.000Z,25.96
2022-08-22T09:30:14.000Z,25.96
2022-08-22T09:31:14.000Z,25.82
2022-08-22T09:32:14.000Z,25.67
2022-08-22T09:33:14.000Z,25.60
2022-08-22T09:34:14.000Z,25.66
2022-08-22T09:35:14.000Z,25.82
2022-08-22T09:36:14.000Z,25.86
2022-08-22T09:37:14.000Z,25.97
2022-08-22T09:38:14.000Z,25.97
2022-08-22T09:39:14.000Z,25.91
2022-08-22T09:40:14.000Z,25.74
2022-08-22T09:41:14.000Z,25.60
2022-08-22T09:42:14.000Z,25.60
2022-08-22T09:43:14.000Z,25.74
2022-08-22T09:44:14.000Z,25.86
2022-08-22T09:45:14.000Z,25.90
2022-08-22T09:46:14.000Z,25.76
2022-08-22T09:47:14.000Z,25.63
2022-08-22T09:48:14.000Z,25.51
2022-08-22T09:49:14.000Z,25.51
2022-08-22T09:50:14.000Z,25.36
2022-08-22T09:51:14.000Z,25.22
2022-08-22T09:52:14.000Z,25.04
2022-08-22T09:53:14.000Z,24.83
2022-08-22T09:54:14.000Z,24.90
2022-08-22T09:55:14.000Z,25.04
2022-08-22T09:56:14.000Z,24.99
2022-08-22T09:57:14.000Z,25.04
2022-08-22T09:58:14.000Z,25.02
2022-08-22T09:59:14.000Z,24.97
2022-08-22T10:00:14.000Z,24.94
2022-08-22T10:01:14.000Z,24.92
2022-08-22T10:02:14.000Z,25.02
2022-08-22T10:03:14.000Z,25.11
2022-08-22T10:04:14.000Z,25.23
2022-08-22T10:05:14.000Z,25.38
2022-08-22T10:06:14.000Z,25.45
2022-08-22T10:07:14.000Z,25.41
2022-08-22T10:08:14.000Z,25.46
2022-08-22T10:09:14.000Z,25.46
2022-08-22T10:10:14.000Z,25.42
2022-08-22T10:11:14.000Z,25.45
2022-08-22T10:12:14.000Z,25.56
2022-08-22T10:13:14.000Z,25.76
2022-08-22T10:14:14.000Z,25.82
2022-08-22T10:15:14.000Z,25.94
2022-08-22T10:16:14.000Z,25.90
2022-08-22T10:17:14.000Z,25.90
2022-08-22T10:18:14.000Z,25.82
2022-08-22T10:19:13.000Z,25.82
2022-08-22T10:20:13.000Z,25.91
2022-08-22T10:21:13.000Z,26.01
2022-08-22T10:22:13.000Z,26.29
2022-08-22T10:23:13.000Z,26.46
2022-08-22T10:24:13.000Z,26.68
2022-08-22T10:25:13.000Z,26.87
2022-08-22T10:26:13.000Z,27.05
2022-08-22T10:27:13.000Z,27.09
2022-08-22T10:28:13.000Z,26.94
2022-08-22T10:29:13.000Z,26.81
2022-08-22T10:30:13.000Z,26.71
2022-08-22T10:31:13.000Z,26.50
2022-08-22T10:32:13.000Z,26.41
2022-08-22T10:33:13.000Z,26.32
2022-08-22T10:34:13.000Z,26.32
2022-08-22T10:35:13.000Z,26.28
2022-08-22T10:36:13.000Z,26.06
2022-08-22T10:37:13.000Z,25.91
2022-08-22T10:38:13.000Z,25.82
2022-08-22T10:38:13.000Z,25.82
2022-08-22T10:39:13.000Z,25.81
2022-08-22T10:39:13.000Z,25.81
2022-08-22T10:40:13.000Z,25.79
2022-08-22T10:40:13.000Z,25.79
2022-08-22T10:41:13.000Z,25.82
2022-08-22T10:41:13.000Z,25.82
2022-08-22T10:42:13.000Z,25.85
2022-08-22T10:42:13.000Z,25.85
2022-08-22T10:43:13.000Z,25.82
2022-08-22T10:44:13.000Z,25.90
2022-08-22T10:45:13.000Z,25.85
2022-08-22T10:46:13.000Z,25.83
2022-08-22T10:47:13.000Z,25.85
2022-08-22T10:48:13.000Z,25.78
2022-08-22T10:48:13.000Z,25.78
2022-08-22T10:49:13.000Z,25.64
2022-08-22T10:49:13.000Z,25.64
2022-08-22T10:50:13.000Z,25.53
2022-08-22T10:50:13.000Z,25.53
2022-08-22T10:51:13.000Z,25.51
2022-08-22T10:51:13.000Z,25.51
2022-08-22T10:52:13.000Z,25.57
2022-08-22T10:52:13.000Z,25.57
2022-08-22T10:53:13.000Z,25.61
2022-08-22T10:54:13.000Z,25.63
2022-08-22T10:55:13.000Z,25.64
2022-08-22T10:56:13.000Z,25.54
2022-08-22T10:57:13.000Z,25.45
2022-08-22T10:58:13.000Z,25.57
2022-08-22T10:59:13.000Z,25.75
2022-08-22T11:00:13.000Z,25.93
2022-08-22T11:01:13.000Z,26.13
2022-08-22T11:02:13.000Z,26.35
2022-08-22T11:03:13.000Z,26.49
2022-08-22T11:04:13.000Z,26.53
2022-08-22T11:05:13.000Z,26.65
2022-08-22T11:06:13.000Z,26.61
2022-08-22T11:07:13.000Z,26.60
2022-08-22T11:08:13.000Z,26.60
2022-08-22T11:09:13.000Z,26.60
2022-08-22T11:10:13.000Z,26.65
2022-08-22T11:11:13.000Z,26.66
2022-08-22T11:12:13.000Z,26.71
2022-08-22T11:13:13.000Z,26.72
2022-08-22T11:14:13.000Z,26.76
2022-08-22T11:15:13.000Z,26.79
2022-08-22T11:16:13.000Z,26.72
2022-08-22T11:17:13.000Z,26.64
2022-08-22T11:18:13.000Z,26.54
2022-08-22T11:19:13.000Z,26.32
2022-08-22T11:20:13.000Z,26.16
2022-08-22T11:21:13.000Z,26.29
2022-08-22T11:22:13.000Z,26.39
2022-08-22T11:23:13.000Z,26.41
2022-08-22T11:24:13.000Z,26.41
2022-08-22T11:25:13.000Z,26.47
2022-08-22T11:26:13.000Z,26.56
2022-08-22T11:27:13.000Z,26.65
2022-08-22T11:28:13.000Z,26.64
2022-08-22T11:28:13.000Z,26.64
2022-08-22T11:28:13.000Z,26.64
2022-08-22T11:29:13.000Z,26.78
2022-08-22T11:29:13.000Z,26.78
2022-08-22T11:29:13.000Z,26.78
2022-08-22T11:30:13.000Z,26.94
2022-08-22T11:30:13.000Z,26.94
2022-08-22T11:30:13.000Z,26.94
2022-08-22T11:31:13.000Z,27.13
2022-08-22T11:31:13.000Z,27.13
2022-08-22T11:31:13.000Z,27.13
2022-08-22T11:32:13.000Z,27.33
2022-08-22T11:32:13.000Z,27.33
2022-08-22T11:32:13.000Z,27.33
2022-08-22T11:33:12.000Z,27.52
2022-08-22T11:33:12.000Z,27.52
2022-08-22T11:34:12.000Z,27.66
2022-08-22T11:34:12.000Z,27.66
2022-08-22T11:35:12.000Z,27.76
2022-08-22T11:35:12.000Z,27.76
2022-08-22T11:36:12.000Z,27.91
2022-08-22T11:36:12.000Z,27.91
2022-08-22T11:37:12.000Z,28.20
2022-08-22T11:37:12.000Z,28.20
2022-08-22T11:38:12.000Z,28.38
2022-08-22T11:39:12.000Z,28.52
2022-08-22T11:40:12.000Z,28.62
2022-08-22T11:41:12.000Z,28.80
2022-08-22T11:42:12.000Z,28.88
2022-08-22T11:43:12.000Z,29.00
2022-08-22T11:44:12.000Z,29.02
2022-08-22T11:45:12.000Z,29.05
2022-08-22T11:46:12.000Z,29.08
2022-08-22T11:47:12.000Z,28.91
2022-08-22T11:48:12.000Z,28.77
2022-08-22T11:49:12.000Z,28.58
2022-08-22T11:50:12.000Z,28.36
2022-08-22T11:51:12.000Z,28.14
2022-08-22T11:52:12.000Z,28.03
2022-08-22T11:53:12.000Z,27.80
2022-08-22T11:54:12.000Z,27.50
2022-08-22T11:55:12.000Z,27.43
2022-08-22T11:56:12.000Z,27.34
2022-08-22T11:57:12.000Z,27.23
2022-08-22T11:58:12.000Z,27.18
2022-08-22T11:59:12.000Z,27.15
2022-08-22T12:00:12.000Z,27.06
2022-08-22T12:01:12.000Z,27.05
2022-08-22T12:02:12.000Z,26.68
2022-08-22T12:03:12.000Z,26.32
2022-08-22T12:04:12.000Z,26.21
2022-08-22T12:05:12.000Z,26.12
2022-08-22T12:06:12.000Z,26.09
2022-08-22T12:07:12.000Z,26.12
2022-08-22T12:08:12.000Z,26.13
2022-08-22T12:08:12.000Z,26.13
2022-08-22T12:09:12.000Z,26.19
2022-08-22T12:09:12.000Z,26.19
2022-08-22T12:10:12.000Z,26.24